createdAt,value
2019-03-29T00:00:29.885Z,31.70
2019-03-29T00:03:05.239Z,32.20
2019-03-29T00:05:36.326Z,36.23
2019-03-29T00:08:07.223Z,32.87
2019-03-29T00:10:38.293Z,30.27
2019-03-29T00:13:09.195Z,29.90
2019-03-29T00:15:40.130Z,33.10
2019-03-29T00:18:11.141Z,33.20
2019-03-29T00:20:44.268Z,31.77
2019-03-29T00:23:15.103Z,29.47
2019-03-29T00:25:46.006Z,30.87
2019-03-29T00:28:16.948Z,32.10
2019-03-29T00:30:48.015Z,27.77
2019-03-29T00:33:19.195Z,28.90
2019-03-29T00:35:53.979Z,26.30
2019-03-29T00:38:24.900Z,29.80
2019-03-29T00:40:55.872Z,34.20
2019-03-29T00:43:26.775Z,34.43
2019-03-29T00:45:57.907Z,40.37
2019-03-29T00:48:28.985Z,34.77
2019-03-29T00:51:00.032Z,32.13
2019-03-29T00:53:31.081Z,34.33
2019-03-29T00:56:01.986Z,36.80
2019-03-29T00:58:32.956Z,37.17
2019-03-29T01:01:03.898Z,39.33
2019-03-29T01:03:34.815Z,39.97
2019-03-29T01:06:06.934Z,41.67
2019-03-29T01:08:39.431Z,44.83
2019-03-29T01:11:10.221Z,49.83
2019-03-29T01:13:41.055Z,50.63
2019-03-29T01:16:13.922Z,56.23
2019-03-29T01:18:44.775Z,50.43
2019-03-29T01:21:18.609Z,43.10
2019-03-29T01:23:50.009Z,43.57
2019-03-29T01:26:21.923Z,46.37
2019-03-29T01:28:52.810Z,40.93
2019-03-29T01:31:23.684Z,43.80
2019-03-29T01:33:54.613Z,43.93
2019-03-29T01:36:25.659Z,47.00
2019-03-29T01:38:56.781Z,44.10
2019-03-29T01:41:27.802Z,43.93
2019-03-29T01:43:58.780Z,42.87
2019-03-29T01:46:30.349Z,39.87
2019-03-29T01:49:01.226Z,48.80
2019-03-29T01:51:32.114Z,43.07
2019-03-29T01:54:04.094Z,42.47
2019-03-29T01:56:35.114Z,38.43
2019-03-29T01:59:06.051Z,37.47
2019-03-29T02:01:36.958Z,33.40
2019-03-29T02:04:09.489Z,30.57
2019-03-29T02:06:42.688Z,35.60
2019-03-29T02:09:13.567Z,31.93
2019-03-29T02:11:44.566Z,32.73
2019-03-29T02:14:17.867Z,33.47
2019-03-29T02:16:48.921Z,32.07
2019-03-29T02:19:28.372Z,27.63
2019-03-29T02:21:59.240Z,26.90
2019-03-29T02:24:30.380Z,26.60
2019-03-29T02:27:01.276Z,30.07
2019-03-29T02:29:33.400Z,28.23
2019-03-29T02:32:04.671Z,28.53
2019-03-29T02:34:35.718Z,32.67
2019-03-29T02:37:06.645Z,32.20
2019-03-29T02:39:37.584Z,36.13
2019-03-29T02:42:09.486Z,36.27
2019-03-29T02:44:41.998Z,35.93
2019-03-29T02:47:12.898Z,36.47
2019-03-29T02:49:43.898Z,36.83
2019-03-29T02:52:14.857Z,31.93
2019-03-29T02:54:45.749Z,31.23
2019-03-29T02:57:16.687Z,30.80
2019-03-29T02:59:47.684Z,27.40
2019-03-29T03:02:18.494Z,29.67
2019-03-29T03:04:51.123Z,30.53
2019-03-29T03:07:22.180Z,31.30
2019-03-29T03:09:53.212Z,34.37
2019-03-29T03:12:25.287Z,29.23
2019-03-29T03:14:56.777Z,28.83
2019-03-29T03:17:27.780Z,30.43
2019-03-29T03:20:00.209Z,27.83
2019-03-29T03:22:31.296Z,31.30
2019-03-29T03:25:02.122Z,25.87
2019-03-29T03:27:34.027Z,28.60
2019-03-29T03:30:05.571Z,27.30
2019-03-29T03:32:36.488Z,25.53
2019-03-29T03:35:07.986Z,33.27
2019-03-29T03:37:38.851Z,23.97
2019-03-29T03:40:10.527Z,26.57
2019-03-29T03:42:41.449Z,27.80
2019-03-29T03:45:12.739Z,28.87
2019-03-29T03:47:45.783Z,32.60
2019-03-29T03:50:33.091Z,27.13
2019-03-29T03:53:03.990Z,29.97
2019-03-29T03:55:35.987Z,27.90
2019-03-29T03:58:06.822Z,26.30
2019-03-29T04:00:51.080Z,23.33
2019-03-29T04:03:22.127Z,21.07
2019-03-29T04:05:53.017Z,20.80
2019-03-29T04:08:23.988Z,21.83
2019-03-29T04:10:59.692Z,18.63
2019-03-29T04:13:31.553Z,17.27
2019-03-29T04:16:03.502Z,16.43
2019-03-29T04:18:38.327Z,13.20
2019-03-29T04:21:09.236Z,13.57
2019-03-29T04:23:40.164Z,12.53
2019-03-29T04:26:12.548Z,13.43
2019-03-29T04:28:43.463Z,26.53
2019-03-29T04:31:20.936Z,23.23
2019-03-29T04:33:53.630Z,34.73
2019-03-29T04:36:24.583Z,31.73
2019-03-29T04:38:56.627Z,32.10
2019-03-29T04:41:29.917Z,35.13
2019-03-29T04:44:00.812Z,50.43
2019-03-29T04:46:34.022Z,53.43
2019-03-29T04:49:04.894Z,41.70
2019-03-29T04:51:38.744Z,41.57
2019-03-29T04:54:09.699Z,34.70
2019-03-29T04:56:42.202Z,29.43
2019-03-29T04:59:12.996Z,24.17
2019-03-29T05:01:43.856Z,24.83
2019-03-29T05:04:15.844Z,30.63
2019-03-29T05:06:48.439Z,48.67
2019-03-29T05:09:19.465Z,141.77
2019-03-29T05:11:50.335Z,76.77
2019-03-29T05:14:21.148Z,246.17
2019-03-29T05:16:53.315Z,356.77
2019-03-29T05:19:24.214Z,106.57
2019-03-29T05:21:55.077Z,131.10
2019-03-29T05:24:25.915Z,291.90
2019-03-29T05:26:56.767Z,101.67
2019-03-29T05:29:27.627Z,263.00
2019-03-29T05:31:58.559Z,190.33
2019-03-29T05:34:29.527Z,239.77
2019-03-29T05:37:00.466Z,124.93
2019-03-29T05:39:31.356Z,265.33
2019-03-29T05:42:02.254Z,210.27
2019-03-29T05:44:33.156Z,324.97
2019-03-29T05:47:04.079Z,416.57
2019-03-29T05:49:34.882Z,208.77
2019-03-29T05:52:07.477Z,384.70
2019-03-29T05:54:38.446Z,362.97
2019-03-29T05:57:09.391Z,426.33
2019-03-29T05:59:40.251Z,279.97
2019-03-29T06:02:11.203Z,270.13
2019-03-29T06:04:45.011Z,212.97
2019-03-29T06:07:15.970Z,275.87
2019-03-29T06:09:46.900Z,241.60
2019-03-29T06:12:17.880Z,113.23
2019-03-29T06:14:48.723Z,367.53
2019-03-29T06:17:19.600Z,135.07
2019-03-29T06:19:50.476Z,412.67
2019-03-29T06:22:21.464Z,395.87
2019-03-29T06:24:53.393Z,444.00
2019-03-29T06:27:24.253Z,443.83
2019-03-29T06:29:55.139Z,428.80
2019-03-29T06:32:26.135Z,146.70
2019-03-29T06:34:57.104Z,327.07
2019-03-29T06:37:29.105Z,279.93
2019-03-29T06:40:03.116Z,250.10
2019-03-29T06:42:36.533Z,295.47
2019-03-29T06:45:09.535Z,541.23
2019-03-29T06:47:41.047Z,388.87
2019-03-29T06:50:14.048Z,180.50
2019-03-29T06:52:44.898Z,423.73
2019-03-29T06:55:15.813Z,235.63
2019-03-29T06:57:46.815Z,101.70
2019-03-29T07:00:17.795Z,186.07
2019-03-29T07:02:48.840Z,464.67
2019-03-29T07:05:19.832Z,158.00
2019-03-29T07:07:50.742Z,240.63
2019-03-29T07:10:21.848Z,147.03
2019-03-29T07:12:56.167Z,469.97
2019-03-29T07:15:25.398Z,144.90
2019-03-29T07:17:56.522Z,164.87
2019-03-29T07:20:28.548Z,98.57
2019-03-29T07:22:59.887Z,400.30
2019-03-29T07:25:30.773Z,155.67
2019-03-29T07:28:01.741Z,67.97
2019-03-29T07:30:32.556Z,78.13
2019-03-29T07:33:03.563Z,217.20
2019-03-29T07:35:34.500Z,248.73
2019-03-29T07:38:05.464Z,105.13
2019-03-29T07:40:36.386Z,81.13
2019-03-29T07:43:07.316Z,71.20
2019-03-29T07:45:38.247Z,57.20
2019-03-29T07:48:09.195Z,59.77
2019-03-29T07:50:40.192Z,57.27
2019-03-29T07:53:11.191Z,70.93
2019-03-29T07:55:42.141Z,55.83
2019-03-29T07:58:14.042Z,63.20
2019-03-29T08:00:44.975Z,50.30
2019-03-29T08:03:15.954Z,58.63
2019-03-29T08:05:49.162Z,71.50
2019-03-29T08:08:27.933Z,74.40
2019-03-29T08:10:55.954Z,73.90
2019-03-29T08:13:27.105Z,82.67
2019-03-29T08:15:59.321Z,71.07
2019-03-29T08:18:30.227Z,64.03
2019-03-29T08:21:01.113Z,54.10
2019-03-29T08:23:32.422Z,64.60
2019-03-29T08:26:03.305Z,58.83
2019-03-29T08:28:34.199Z,59.93
2019-03-29T08:31:05.127Z,61.63
2019-03-29T08:33:37.680Z,65.03
2019-03-29T08:36:09.130Z,67.07
2019-03-29T08:38:40.064Z,65.63
2019-03-29T08:41:10.996Z,59.77
2019-03-29T08:43:42.995Z,56.73
2019-03-29T08:46:21.270Z,55.70
2019-03-29T08:48:52.256Z,51.97
2019-03-29T08:51:23.152Z,50.63
2019-03-29T08:53:54.076Z,49.57
2019-03-29T08:56:25.304Z,44.97
2019-03-29T08:58:56.172Z,50.07
2019-03-29T09:01:27.262Z,47.10
2019-03-29T09:04:05.168Z,43.83
2019-03-29T09:06:30.864Z,43.30
2019-03-29T09:09:02.228Z,39.27
2019-03-29T09:11:34.839Z,38.43
2019-03-29T09:14:05.802Z,40.67
2019-03-29T09:16:36.821Z,39.53
2019-03-29T09:19:07.996Z,35.50
2019-03-29T09:21:38.861Z,34.17
2019-03-29T09:24:21.332Z,31.37
2019-03-29T09:26:42.525Z,24.03
2019-03-29T09:29:13.458Z,23.43
2019-03-29T09:31:44.337Z,20.27
2019-03-29T09:34:15.307Z,23.37
2019-03-29T09:36:46.219Z,16.93
2019-03-29T09:39:17.174Z,16.73
2019-03-29T09:41:48.081Z,17.93
2019-03-29T09:44:19.169Z,16.87
2019-03-29T09:46:50.151Z,19.10
2019-03-29T09:49:23.924Z,21.87
2019-03-29T09:51:55.935Z,8.70
2019-03-29T09:54:27.795Z,9.00
2019-03-29T09:56:58.808Z,10.07
2019-03-29T09:59:29.781Z,11.23
2019-03-29T10:02:00.579Z,10.23
2019-03-29T10:04:31.543Z,10.87
2019-03-29T10:07:02.443Z,7.77
2019-03-29T10:09:33.413Z,8.00
2019-03-29T10:12:04.362Z,9.90
2019-03-29T10:14:35.309Z,10.53
2019-03-29T10:17:06.901Z,9.00
2019-03-29T10:19:39.985Z,7.77
2019-03-29T10:22:11.052Z,9.60
2019-03-29T10:24:42.885Z,11.97
2019-03-29T10:27:13.878Z,10.47
2019-03-29T10:29:45.838Z,11.77
2019-03-29T10:32:18.407Z,8.83
2019-03-29T10:34:49.468Z,22.40
2019-03-29T10:37:22.081Z,8.70
2019-03-29T10:39:53.243Z,4.43
2019-03-29T10:42:25.544Z,8.83
2019-03-29T10:44:56.358Z,6.17
2019-03-29T10:47:42.585Z,7.07
2019-03-29T10:50:03.589Z,6.43
2019-03-29T10:52:36.667Z,4.00
2019-03-29T10:55:07.924Z,3.93
2019-03-29T10:57:40.046Z,6.23
2019-03-29T11:00:14.431Z,5.30
2019-03-29T11:02:45.426Z,3.90
2019-03-29T11:05:16.274Z,6.10
2019-03-29T11:07:48.297Z,4.77
2019-03-29T11:10:31.672Z,3.40
2019-03-29T11:13:12.692Z,3.87
2019-03-29T11:15:37.087Z,7.33
2019-03-29T11:18:10.802Z,5.03
2019-03-29T11:20:42.762Z,6.13
2019-03-29T11:23:16.541Z,4.87
2019-03-29T11:25:48.825Z,5.97
2019-03-29T11:28:23.055Z,4.60
2019-03-29T11:30:53.951Z,5.60
2019-03-29T11:33:24.892Z,5.67
2019-03-29T11:35:55.895Z,7.20
2019-03-29T11:38:26.848Z,6.87
2019-03-29T11:40:57.670Z,3.70
2019-03-29T11:43:28.514Z,4.57
2019-03-29T11:46:00.447Z,3.43
2019-03-29T11:48:31.428Z,4.53
2019-03-29T11:51:02.392Z,9.40
2019-03-29T11:53:33.262Z,7.43
2019-03-29T11:56:04.129Z,7.33
2019-03-29T11:58:35.152Z,11.43
2019-03-29T12:01:06.641Z,8.60
2019-03-29T12:03:37.599Z,6.30
2019-03-29T12:06:08.506Z,8.73
2019-03-29T12:08:39.415Z,8.13
2019-03-29T12:11:10.276Z,6.90
2019-03-29T12:13:41.658Z,5.00
2019-03-29T12:16:12.568Z,7.77
2019-03-29T12:18:43.473Z,7.43
2019-03-29T12:21:14.394Z,7.80
2019-03-29T12:23:45.200Z,6.80
2019-03-29T12:26:18.015Z,7.63
2019-03-29T12:28:48.905Z,8.00
2019-03-29T12:31:21.643Z,11.30
2019-03-29T12:33:52.689Z,5.20
2019-03-29T12:36:27.636Z,7.00
2019-03-29T12:38:58.509Z,8.37
2019-03-29T12:41:29.539Z,10.33
2019-03-29T12:44:02.044Z,6.80
2019-03-29T12:46:33.077Z,7.73
2019-03-29T12:49:03.983Z,8.23
2019-03-29T12:51:34.939Z,6.03
2019-03-29T12:54:05.907Z,7.37
2019-03-29T12:56:36.841Z,8.00
2019-03-29T12:59:07.717Z,8.73
2019-03-29T13:01:39.880Z,7.70
2019-03-29T13:04:11.290Z,8.05
2019-03-29T13:06:42.302Z,7.20
2019-03-29T13:09:13.353Z,6.87
2019-03-29T13:11:45.312Z,7.27
2019-03-29T13:14:16.300Z,7.33
2019-03-29T13:16:48.171Z,7.57
2019-03-29T13:19:24.286Z,8.47
2019-03-29T13:21:58.037Z,8.35
2019-03-29T13:24:28.880Z,6.70
2019-03-29T13:26:59.834Z,12.47
2019-03-29T13:29:32.104Z,10.08
2019-03-29T13:32:05.347Z,6.70
2019-03-29T13:34:35.936Z,8.20
2019-03-29T13:37:08.661Z,9.30
2019-03-29T13:39:39.627Z,6.28
2019-03-29T13:42:10.743Z,8.35
2019-03-29T13:44:41.667Z,8.33
2019-03-29T13:47:12.648Z,8.27
2019-03-29T13:49:43.731Z,10.05
2019-03-29T13:52:14.738Z,7.58
2019-03-29T13:54:47.990Z,6.47
2019-03-29T13:57:18.978Z,10.40
2019-03-29T13:59:49.936Z,6.97
2019-03-29T14:02:20.879Z,9.83
2019-03-29T14:04:51.832Z,9.75
2019-03-29T14:07:22.878Z,10.93
2019-03-29T14:09:58.059Z,8.87
2019-03-29T14:12:29.224Z,9.23
2019-03-29T14:15:02.114Z,10.25
2019-03-29T14:17:35.314Z,9.28
2019-03-29T14:20:09.987Z,10.08
2019-03-29T14:22:41.103Z,11.18
2019-03-29T14:25:12.219Z,9.75
2019-03-29T14:27:43.063Z,8.30
2019-03-29T14:30:14.119Z,13.17
2019-03-29T14:32:47.242Z,12.13
2019-03-29T14:35:18.168Z,11.55
2019-03-29T14:37:49.610Z,10.15
2019-03-29T14:40:20.515Z,11.27
2019-03-29T14:42:51.678Z,11.15
2019-03-29T14:45:22.726Z,13.40
2019-03-29T14:47:54.877Z,11.80
2019-03-29T14:50:25.835Z,9.30
2019-03-29T14:52:56.791Z,13.35
2019-03-29T14:55:28.465Z,11.70
2019-03-29T14:58:02.067Z,10.38
2019-03-29T15:00:41.261Z,15.10
2019-03-29T15:03:12.850Z,11.22
2019-03-29T15:05:43.826Z,9.57
2019-03-29T15:08:14.752Z,13.43
2019-03-29T15:10:47.084Z,10.57
2019-03-29T15:13:17.980Z,11.63
2019-03-29T15:15:48.864Z,9.80
2019-03-29T15:18:19.712Z,27.17
2019-03-29T15:20:53.592Z,18.15
2019-03-29T15:23:23.108Z,18.62
2019-03-29T15:25:54.147Z,23.00
2019-03-29T15:28:27.487Z,23.13
2019-03-29T15:30:58.343Z,22.95
2019-03-29T15:33:29.238Z,23.00
2019-03-29T15:36:04.464Z,23.90
2019-03-29T15:38:37.336Z,20.67
2019-03-29T15:41:08.469Z,25.43
2019-03-29T15:43:39.449Z,31.95
2019-03-29T15:46:10.455Z,24.32
2019-03-29T15:48:41.499Z,23.40
2019-03-29T15:51:12.445Z,23.42
2019-03-29T15:53:43.392Z,20.72
2019-03-29T15:56:14.445Z,23.30
2019-03-29T15:58:45.536Z,20.55
2019-03-29T16:01:19.244Z,25.82
2019-03-29T16:03:50.218Z,28.20
2019-03-29T16:06:21.276Z,29.20
2019-03-29T16:08:52.190Z,24.97
2019-03-29T16:11:23.132Z,28.50
2019-03-29T16:13:56.297Z,24.53
2019-03-29T16:16:27.335Z,29.50
2019-03-29T16:18:58.207Z,25.17
2019-03-29T16:21:29.125Z,26.03
2019-03-29T16:23:59.937Z,26.35
2019-03-29T16:26:33.058Z,25.00
2019-03-29T16:29:04.156Z,27.05
2019-03-29T16:31:37.858Z,28.70
2019-03-29T16:34:08.746Z,29.53
2019-03-29T16:36:40.570Z,29.53
2019-03-29T16:39:12.430Z,34.00
2019-03-29T16:41:43.471Z,30.70
2019-03-29T16:44:14.491Z,27.47
2019-03-29T16:46:48.847Z,31.33
2019-03-29T16:49:20.046Z,36.03
2019-03-29T16:52:08.363Z,35.93
2019-03-29T16:55:13.284Z,33.00
2019-03-29T16:57:42.571Z,40.70
2019-03-29T17:00:27.548Z,35.30
2019-03-29T17:03:00.349Z,37.10
2019-03-29T17:05:37.919Z,37.10
2019-03-29T17:09:05.496Z,31.13
2019-03-29T17:11:37.002Z,35.87
2019-03-29T17:14:08.025Z,35.07
2019-03-29T17:16:39.036Z,33.07
2019-03-29T17:19:09.997Z,34.03
2019-03-29T17:21:41.014Z,32.23
2019-03-29T17:24:15.693Z,31.00
2019-03-29T17:26:48.900Z,31.07
2019-03-29T17:29:19.902Z,31.73
2019-03-29T17:31:51.555Z,33.47
2019-03-29T17:34:22.474Z,34.30
2019-03-29T17:36:53.510Z,32.60
2019-03-29T17:39:24.525Z,33.33
2019-03-29T17:41:58.499Z,36.27
2019-03-29T17:44:29.542Z,31.87
2019-03-29T17:47:00.511Z,29.73
2019-03-29T17:49:31.591Z,29.83
2019-03-29T17:52:02.883Z,32.23
2019-03-29T17:54:33.918Z,30.13
2019-03-29T17:57:04.961Z,33.03
2019-03-29T17:59:38.315Z,32.33
2019-03-29T18:02:12.623Z,28.50
2019-03-29T18:04:44.109Z,30.37
2019-03-29T18:07:15.128Z,33.27
2019-03-29T18:09:46.257Z,34.37
2019-03-29T18:12:17.314Z,30.00
2019-03-29T18:14:48.439Z,30.80
2019-03-29T18:17:19.385Z,35.20
2019-03-29T18:19:50.393Z,33.80
2019-03-29T18:22:29.677Z,32.80
2019-03-29T18:25:00.713Z,29.70
2019-03-29T18:27:32.753Z,27.70
2019-03-29T18:30:03.973Z,28.87
2019-03-29T18:32:37.646Z,42.80
2019-03-29T18:35:11.588Z,35.73
2019-03-29T18:37:42.879Z,34.50
2019-03-29T18:40:31.347Z,32.63
2019-03-29T18:43:04.489Z,28.80
2019-03-29T18:45:35.634Z,32.20
2019-03-29T18:48:08.346Z,35.80
2019-03-29T18:50:45.451Z,32.90
2019-03-29T18:53:26.351Z,38.87
2019-03-29T18:55:57.485Z,31.83
2019-03-29T18:58:28.650Z,38.23
2019-03-29T19:00:59.819Z,32.33
2019-03-29T19:03:30.828Z,35.70
2019-03-29T19:06:01.813Z,38.90
2019-03-29T19:08:32.786Z,30.07
2019-03-29T19:11:03.852Z,39.50
2019-03-29T19:13:36.348Z,40.47
2019-03-29T19:16:09.725Z,39.27
2019-03-29T19:18:40.792Z,32.80
2019-03-29T19:21:12.118Z,30.30
2019-03-29T19:23:44.325Z,32.27
2019-03-29T19:26:15.306Z,29.27
2019-03-29T19:28:46.499Z,28.47
2019-03-29T19:31:22.396Z,32.43
2019-03-29T19:33:53.545Z,35.60
2019-03-29T19:36:24.849Z,31.57
2019-03-29T19:38:59.776Z,36.70
2019-03-29T19:41:30.864Z,33.83
2019-03-29T19:44:03.539Z,36.83
2019-03-29T19:46:36.324Z,33.83
2019-03-29T19:49:10.219Z,30.07
2019-03-29T19:51:44.193Z,28.80
2019-03-29T19:54:19.069Z,34.90
2019-03-29T19:56:50.284Z,32.27
2019-03-29T19:59:26.678Z,32.00
2019-03-29T20:01:58.696Z,32.23
2019-03-29T20:04:31.845Z,31.47
2019-03-29T20:07:03.027Z,32.93
2019-03-29T20:09:34.338Z,27.20
2019-03-29T20:12:09.836Z,32.53
2019-03-29T20:14:41.472Z,33.53
2019-03-29T20:17:26.720Z,32.90
2019-03-29T20:19:45.590Z,37.37
2019-03-29T20:22:18.130Z,30.50
2019-03-29T20:24:54.416Z,34.87
2019-03-29T20:27:25.684Z,31.07
2019-03-29T20:29:57.807Z,32.63
2019-03-29T20:32:32.001Z,30.03
2019-03-29T20:35:03.968Z,29.23
2019-03-29T20:37:35.248Z,30.27
2019-03-29T20:40:08.139Z,29.63
2019-03-29T20:42:39.244Z,30.97
2019-03-29T20:45:16.035Z,27.73
2019-03-29T20:47:47.292Z,26.50
2019-03-29T20:50:18.355Z,29.43
2019-03-29T20:52:49.307Z,24.23
2019-03-29T20:55:21.868Z,26.53
2019-03-29T20:57:52.958Z,24.80
2019-03-29T21:00:24.848Z,25.40
2019-03-29T21:02:55.992Z,29.77
2019-03-29T21:05:29.767Z,29.17
2019-03-29T21:08:00.782Z,26.63
2019-03-29T21:10:31.711Z,29.30
2019-03-29T21:13:02.778Z,26.33
2019-03-29T21:15:33.833Z,34.37
2019-03-29T21:18:05.069Z,27.93
2019-03-29T21:20:35.974Z,31.40
2019-03-29T21:23:08.622Z,29.90
2019-03-29T21:25:40.220Z,28.23
2019-03-29T21:28:11.310Z,26.37
2019-03-29T21:30:42.208Z,30.23
2019-03-29T21:33:13.190Z,32.03
2019-03-29T21:35:45.338Z,30.80
2019-03-29T21:38:16.235Z,32.87
2019-03-29T21:40:50.053Z,31.23
2019-03-29T21:43:21.130Z,30.27
2019-03-29T21:45:52.057Z,36.57
2019-03-29T21:48:29.073Z,29.03
2019-03-29T21:50:59.569Z,38.10
2019-03-29T21:53:30.715Z,29.30
2019-03-29T21:56:02.573Z,39.60
2019-03-29T21:58:37.693Z,33.97
2019-03-29T22:01:09.980Z,38.13
2019-03-29T22:03:48.635Z,33.33
2019-03-29T22:06:24.401Z,32.80
2019-03-29T22:08:58.702Z,33.17
2019-03-29T22:11:40.075Z,34.23
2019-03-29T22:14:17.171Z,31.93
2019-03-29T22:16:52.858Z,35.23
2019-03-29T22:19:30.584Z,35.63
2019-03-29T22:22:03.595Z,35.23
2019-03-29T22:24:35.788Z,35.70
2019-03-29T22:27:13.093Z,33.93
2019-03-29T22:29:47.256Z,29.93
2019-03-29T22:32:19.599Z,32.63
2019-03-29T22:34:56.837Z,33.23
2019-03-29T22:37:27.841Z,29.10
2019-03-29T22:40:06.156Z,31.00
2019-03-29T22:42:40.334Z,30.20
2019-03-29T22:45:12.353Z,33.90
2019-03-29T22:47:47.333Z,37.57
2019-03-29T22:50:18.807Z,33.47
2019-03-29T22:52:49.819Z,32.77
2019-03-29T22:55:20.860Z,32.13
2019-03-29T22:57:51.905Z,30.33
2019-03-29T23:00:35.550Z,37.47
2019-03-29T23:03:10.928Z,34.67
2019-03-29T23:05:43.132Z,35.60
2019-03-29T23:08:15.979Z,35.03
2019-03-29T23:10:51.001Z,35.47
2019-03-29T23:13:26.931Z,35.80
2019-03-29T23:16:01.196Z,33.83
2019-03-29T23:18:34.653Z,33.47
2019-03-29T23:21:11.735Z,33.63
2019-03-29T23:23:46.046Z,38.77
2019-03-29T23:26:18.596Z,34.13
2019-03-29T23:28:53.642Z,36.70
2019-03-29T23:31:27.518Z,37.53
2019-03-29T23:33:58.668Z,45.07
2019-03-29T23:36:29.806Z,41.07
2019-03-29T23:39:00.905Z,38.37
2019-03-29T23:41:33.610Z,38.63
2019-03-29T23:44:04.818Z,36.53
2019-03-29T23:46:36.004Z,37.67
2019-03-29T23:49:20.261Z,35.70
2019-03-29T23:51:42.930Z,36.23
2019-03-29T23:54:13.983Z,39.17
2019-03-29T23:56:45.013Z,36.80
2019-03-29T23:59:16.090Z,37.50
